sensor_id;sensor_type;location;lat;lon;timestamp;temperature;humidity
52963;DHT22;38827;53.024;6.596;2023-05-10T00:00:13;13.90;85.80
52963;DHT22;38827;53.024;6.596;2023-05-10T00:02:39;13.80;85.70
52963;DHT22;38827;53.024;6.596;2023-05-10T00:05:06;13.80;85.70
52963;DHT22;38827;53.024;6.596;2023-05-10T00:07:32;13.80;85.60
52963;DHT22;38827;53.024;6.596;2023-05-10T00:09:57;13.70;85.60
52963;DHT22;38827;53.024;6.596;2023-05-10T00:12:23;13.70;85.80
52963;DHT22;38827;53.024;6.596;2023-05-10T00:14:49;13.70;85.90
52963;DHT22;38827;53.024;6.596;2023-05-10T00:17:14;13.60;86.00
52963;DHT22;38827;53.024;6.596;2023-05-10T00:19:40;13.60;86.00
52963;DHT22;38827;53.024;6.596;2023-05-10T00:22:06;13.60;86.00
52963;DHT22;38827;53.024;6.596;2023-05-10T00:24:31;13.60;86.20
52963;DHT22;38827;53.024;6.596;2023-05-10T00:26:57;13.60;86.30
52963;DHT22;38827;53.024;6.596;2023-05-10T00:29:23;13.60;86.20
52963;DHT22;38827;53.024;6.596;2023-05-10T00:31:48;13.60;86.30
52963;DHT22;38827;53.024;6.596;2023-05-10T00:34:14;13.60;86.30
52963;DHT22;38827;53.024;6.596;2023-05-10T00:36:40;13.60;86.30
52963;DHT22;38827;53.024;6.596;2023-05-10T00:39:06;13.60;86.30
52963;DHT22;38827;53.024;6.596;2023-05-10T00:41:31;13.60;86.20
52963;DHT22;38827;53.024;6.596;2023-05-10T00:43:58;13.60;86.20
52963;DHT22;38827;53.024;6.596;2023-05-10T00:46:24;13.60;86.20
52963;DHT22;38827;53.024;6.596;2023-05-10T00:48:51;13.60;86.30
52963;DHT22;38827;53.024;6.596;2023-05-10T00:51:17;13.60;86.00
52963;DHT22;38827;53.024;6.596;2023-05-10T00:53:44;13.60;86.30
52963;DHT22;38827;53.024;6.596;2023-05-10T00:56:10;13.60;86.20
52963;DHT22;38827;53.024;6.596;2023-05-10T00:58:36;13.60;86.10
52963;DHT22;38827;53.024;6.596;2023-05-10T01:01:02;13.60;86.10
52963;DHT22;38827;53.024;6.596;2023-05-10T01:03:28;13.60;86.20
52963;DHT22;38827;53.024;6.596;2023-05-10T01:05:55;13.60;86.20
52963;DHT22;38827;53.024;6.596;2023-05-10T01:08:20;13.60;86.10
52963;DHT22;38827;53.024;6.596;2023-05-10T01:10:47;13.50;86.00
52963;DHT22;38827;53.024;6.596;2023-05-10T01:13:18;13.50;86.10
52963;DHT22;38827;53.024;6.596;2023-05-10T01:15:48;13.60;86.20
52963;DHT22;38827;53.024;6.596;2023-05-10T01:18:15;13.50;86.30
52963;DHT22;38827;53.024;6.596;2023-05-10T01:20:46;13.50;86.40
52963;DHT22;38827;53.024;6.596;2023-05-10T01:23:35;13.50;86.30
52963;DHT22;38827;53.024;6.596;2023-05-10T01:32:20;13.50;86.00
52963;DHT22;38827;53.024;6.596;2023-05-10T01:35:03;13.40;86.20
52963;DHT22;38827;53.024;6.596;2023-05-10T01:40:08;13.30;86.40
52963;DHT22;38827;53.024;6.596;2023-05-10T01:42:43;13.30;86.30
52963;DHT22;38827;53.024;6.596;2023-05-10T01:48:08;13.30;86.40
52963;DHT22;38827;53.024;6.596;2023-05-10T01:50:36;13.30;86.40
52963;DHT22;38827;53.024;6.596;2023-05-10T01:53:05;13.30;86.60
52963;DHT22;38827;53.024;6.596;2023-05-10T01:55:35;13.30;86.60
52963;DHT22;38827;53.024;6.596;2023-05-10T01:58:22;13.30;86.50
52963;DHT22;38827;53.024;6.596;2023-05-10T02:00:50;13.30;86.50
52963;DHT22;38827;53.024;6.596;2023-05-10T02:03:18;13.30;86.60
52963;DHT22;38827;53.024;6.596;2023-05-10T02:05:46;13.20;86.70
52963;DHT22;38827;53.024;6.596;2023-05-10T02:08:14;13.30;86.70
52963;DHT22;38827;53.024;6.596;2023-05-10T02:10:43;13.20;86.80
52963;DHT22;38827;53.024;6.596;2023-05-10T02:13:11;13.20;86.80
52963;DHT22;38827;53.024;6.596;2023-05-10T02:15:38;13.20;86.80
52963;DHT22;38827;53.024;6.596;2023-05-10T02:18:06;13.20;86.90
52963;DHT22;38827;53.024;6.596;2023-05-10T02:20:33;13.20;87.00
52963;DHT22;38827;53.024;6.596;2023-05-10T02:23:01;13.20;87.00
52963;DHT22;38827;53.024;6.596;2023-05-10T02:25:28;13.20;87.00
52963;DHT22;38827;53.024;6.596;2023-05-10T02:27:56;13.20;87.00
52963;DHT22;38827;53.024;6.596;2023-05-10T02:30:23;13.20;87.10
52963;DHT22;38827;53.024;6.596;2023-05-10T02:32:50;13.20;87.10
52963;DHT22;38827;53.024;6.596;2023-05-10T02:35:16;13.20;87.10
52963;DHT22;38827;53.024;6.596;2023-05-10T02:37:43;13.20;87.20
52963;DHT22;38827;53.024;6.596;2023-05-10T02:40:11;13.20;87.20
52963;DHT22;38827;53.024;6.596;2023-05-10T02:42:41;13.20;87.20
52963;DHT22;38827;53.024;6.596;2023-05-10T02:45:11;13.10;87.40
52963;DHT22;38827;53.024;6.596;2023-05-10T02:47:37;13.10;87.30
52963;DHT22;38827;53.024;6.596;2023-05-10T02:50:03;13.10;87.30
52963;DHT22;38827;53.024;6.596;2023-05-10T02:52:36;13.10;87.40
52963;DHT22;38827;53.024;6.596;2023-05-10T02:55:04;13.10;87.30
52963;DHT22;38827;53.024;6.596;2023-05-10T02:57:34;13.20;87.60
52963;DHT22;38827;53.024;6.596;2023-05-10T03:00:02;13.10;87.60
52963;DHT22;38827;53.024;6.596;2023-05-10T03:02:28;13.20;87.60
52963;DHT22;38827;53.024;6.596;2023-05-10T03:04:56;13.10;87.40
52963;DHT22;38827;53.024;6.596;2023-05-10T03:07:21;13.10;87.70
52963;DHT22;38827;53.024;6.596;2023-05-10T03:09:51;13.10;87.60
52963;DHT22;38827;53.024;6.596;2023-05-10T03:12:26;13.10;87.60
52963;DHT22;38827;53.024;6.596;2023-05-10T03:17:57;13.10;87.60
52963;DHT22;38827;53.024;6.596;2023-05-10T03:20:51;13.10;87.70
52963;DHT22;38827;53.024;6.596;2023-05-10T03:23:46;13.10;87.50
52963;DHT22;38827;53.024;6.596;2023-05-10T03:26:20;13.10;87.60
52963;DHT22;38827;53.024;6.596;2023-05-10T03:28:49;13.10;87.70
52963;DHT22;38827;53.024;6.596;2023-05-10T03:31:15;13.10;87.70
52963;DHT22;38827;53.024;6.596;2023-05-10T03:33:49;13.00;87.50
52963;DHT22;38827;53.024;6.596;2023-05-10T03:36:14;13.00;87.70
52963;DHT22;38827;53.024;6.596;2023-05-10T03:38:40;13.00;87.60
52963;DHT22;38827;53.024;6.596;2023-05-10T03:41:06;13.10;87.70
52963;DHT22;38827;53.024;6.596;2023-05-10T03:43:31;13.10;87.60
52963;DHT22;38827;53.024;6.596;2023-05-10T03:45:57;13.10;87.60
52963;DHT22;38827;53.024;6.596;2023-05-10T03:48:23;13.10;87.70
52963;DHT22;38827;53.024;6.596;2023-05-10T03:50:48;13.10;87.60
52963;DHT22;38827;53.024;6.596;2023-05-10T03:53:17;13.10;87.70
52963;DHT22;38827;53.024;6.596;2023-05-10T03:55:42;13.10;87.60
52963;DHT22;38827;53.024;6.596;2023-05-10T03:58:10;13.10;87.70
52963;DHT22;38827;53.024;6.596;2023-05-10T04:00:36;13.10;87.80
52963;DHT22;38827;53.024;6.596;2023-05-10T04:03:02;13.10;87.80
52963;DHT22;38827;53.024;6.596;2023-05-10T04:05:28;13.10;87.80
52963;DHT22;38827;53.024;6.596;2023-05-10T04:07:54;13.10;87.80
52963;DHT22;38827;53.024;6.596;2023-05-10T04:10:20;13.10;87.80
52963;DHT22;38827;53.024;6.596;2023-05-10T04:12:46;13.10;87.80
52963;DHT22;38827;53.024;6.596;2023-05-10T04:15:12;13.10;87.50
52963;DHT22;38827;53.024;6.596;2023-05-10T04:17:37;13.10;87.50
52963;DHT22;38827;53.024;6.596;2023-05-10T04:20:03;13.10;87.60
52963;DHT22;38827;53.024;6.596;2023-05-10T04:22:30;13.10;87.70
52963;DHT22;38827;53.024;6.596;2023-05-10T04:24:55;13.10;87.70
52963;DHT22;38827;53.024;6.596;2023-05-10T04:27:21;13.10;87.50
52963;DHT22;38827;53.024;6.596;2023-05-10T04:29:47;13.10;87.50
52963;DHT22;38827;53.024;6.596;2023-05-10T04:32:12;13.10;87.50
52963;DHT22;38827;53.024;6.596;2023-05-10T04:34:38;13.00;87.50
52963;DHT22;38827;53.024;6.596;2023-05-10T04:37:04;13.00;87.50
52963;DHT22;38827;53.024;6.596;2023-05-10T04:39:29;13.00;87.60
52963;DHT22;38827;53.024;6.596;2023-05-10T04:41:55;13.00;87.50
52963;DHT22;38827;53.024;6.596;2023-05-10T04:44:20;13.00;87.60
52963;DHT22;38827;53.024;6.596;2023-05-10T04:46:46;13.00;87.40
52963;DHT22;38827;53.024;6.596;2023-05-10T04:49:12;13.00;87.30
52963;DHT22;38827;53.024;6.596;2023-05-10T04:51:37;13.00;87.40
52963;DHT22;38827;53.024;6.596;2023-05-10T04:54:03;13.00;87.50
52963;DHT22;38827;53.024;6.596;2023-05-10T04:56:28;13.00;87.50
52963;DHT22;38827;53.024;6.596;2023-05-10T04:58:56;13.00;87.50
52963;DHT22;38827;53.024;6.596;2023-05-10T05:01:24;13.00;87.50
52963;DHT22;38827;53.024;6.596;2023-05-10T05:03:50;13.00;87.50
52963;DHT22;38827;53.024;6.596;2023-05-10T05:06:17;13.00;87.50
52963;DHT22;38827;53.024;6.596;2023-05-10T05:08:43;13.00;87.60
52963;DHT22;38827;53.024;6.596;2023-05-10T05:11:09;13.00;87.60
52963;DHT22;38827;53.024;6.596;2023-05-10T05:13:34;13.00;87.70
52963;DHT22;38827;53.024;6.596;2023-05-10T05:16:01;13.00;87.70
52963;DHT22;38827;53.024;6.596;2023-05-10T05:18:28;13.00;87.70
52963;DHT22;38827;53.024;6.596;2023-05-10T05:20:53;13.00;87.80
52963;DHT22;38827;53.024;6.596;2023-05-10T05:23:19;12.90;87.80
52963;DHT22;38827;53.024;6.596;2023-05-10T05:25:46;12.90;87.90
52963;DHT22;38827;53.024;6.596;2023-05-10T05:28:12;12.90;88.00
52963;DHT22;38827;53.024;6.596;2023-05-10T05:30:37;12.90;88.10
52963;DHT22;38827;53.024;6.596;2023-05-10T05:33:03;12.90;88.10
52963;DHT22;38827;53.024;6.596;2023-05-10T05:35:29;12.90;88.20
52963;DHT22;38827;53.024;6.596;2023-05-10T05:37:55;12.90;88.20
52963;DHT22;38827;53.024;6.596;2023-05-10T05:40:21;12.90;88.40
52963;DHT22;38827;53.024;6.596;2023-05-10T05:42:46;12.90;88.30
52963;DHT22;38827;53.024;6.596;2023-05-10T05:45:12;12.90;88.40
52963;DHT22;38827;53.024;6.596;2023-05-10T05:47:39;12.90;88.30
52963;DHT22;38827;53.024;6.596;2023-05-10T05:50:05;12.90;88.40
52963;DHT22;38827;53.024;6.596;2023-05-10T05:52:31;12.90;88.40
52963;DHT22;38827;53.024;6.596;2023-05-10T05:54:57;12.90;88.50
52963;DHT22;38827;53.024;6.596;2023-05-10T05:57:22;12.90;88.50
52963;DHT22;38827;53.024;6.596;2023-05-10T05:59:48;12.90;88.50
52963;DHT22;38827;53.024;6.596;2023-05-10T06:02:14;12.90;88.50
52963;DHT22;38827;53.024;6.596;2023-05-10T06:04:39;12.90;88.70
52963;DHT22;38827;53.024;6.596;2023-05-10T06:07:05;12.90;88.60
52963;DHT22;38827;53.024;6.596;2023-05-10T06:09:31;12.90;88.60
52963;DHT22;38827;53.024;6.596;2023-05-10T06:11:58;12.90;88.60
52963;DHT22;38827;53.024;6.596;2023-05-10T06:14:23;12.90;88.70
52963;DHT22;38827;53.024;6.596;2023-05-10T06:16:49;12.90;88.70
52963;DHT22;38827;53.024;6.596;2023-05-10T06:19:15;12.90;88.70
52963;DHT22;38827;53.024;6.596;2023-05-10T06:21:40;12.90;88.70
52963;DHT22;38827;53.024;6.596;2023-05-10T06:24:06;12.90;88.80
52963;DHT22;38827;53.024;6.596;2023-05-10T06:26:32;12.90;88.90
52963;DHT22;38827;53.024;6.596;2023-05-10T06:28:58;12.90;89.00
52963;DHT22;38827;53.024;6.596;2023-05-10T06:31:24;12.90;89.10
52963;DHT22;38827;53.024;6.596;2023-05-10T06:33:50;12.90;89.20
52963;DHT22;38827;53.024;6.596;2023-05-10T06:36:16;13.00;89.10
52963;DHT22;38827;53.024;6.596;2023-05-10T06:39:00;13.00;89.10
52963;DHT22;38827;53.024;6.596;2023-05-10T06:41:26;13.00;88.90
52963;DHT22;38827;53.024;6.596;2023-05-10T06:43:52;12.90;89.00
52963;DHT22;38827;53.024;6.596;2023-05-10T06:46:17;13.00;89.00
52963;DHT22;38827;53.024;6.596;2023-05-10T06:48:43;13.00;89.00
52963;DHT22;38827;53.024;6.596;2023-05-10T06:51:09;13.00;89.00
52963;DHT22;38827;53.024;6.596;2023-05-10T06:53:34;12.90;88.90
52963;DHT22;38827;53.024;6.596;2023-05-10T06:56:00;12.90;88.80
52963;DHT22;38827;53.024;6.596;2023-05-10T06:58:25;12.90;88.90
52963;DHT22;38827;53.024;6.596;2023-05-10T07:00:51;12.90;89.00
52963;DHT22;38827;53.024;6.596;2023-05-10T07:03:17;12.90;89.00
52963;DHT22;38827;53.024;6.596;2023-05-10T07:05:42;12.90;89.00
52963;DHT22;38827;53.024;6.596;2023-05-10T07:08:08;12.90;89.00
52963;DHT22;38827;53.024;6.596;2023-05-10T07:10:34;12.90;89.00
52963;DHT22;38827;53.024;6.596;2023-05-10T07:13:00;13.00;89.20
52963;DHT22;38827;53.024;6.596;2023-05-10T07:15:26;13.00;89.20
52963;DHT22;38827;53.024;6.596;2023-05-10T07:17:52;13.00;89.10
52963;DHT22;38827;53.024;6.596;2023-05-10T07:20:18;13.00;88.90
52963;DHT22;38827;53.024;6.596;2023-05-10T07:22:44;13.00;88.80
52963;DHT22;38827;53.024;6.596;2023-05-10T07:25:09;13.00;88.80
52963;DHT22;38827;53.024;6.596;2023-05-10T07:27:36;13.10;88.80
52963;DHT22;38827;53.024;6.596;2023-05-10T07:30:02;13.10;88.90
52963;DHT22;38827;53.024;6.596;2023-05-10T07:32:28;13.20;88.80
52963;DHT22;38827;53.024;6.596;2023-05-10T07:34:53;13.20;88.70
52963;DHT22;38827;53.024;6.596;2023-05-10T07:37:29;13.30;88.60
52963;DHT22;38827;53.024;6.596;2023-05-10T07:39:55;13.40;88.40
52963;DHT22;38827;53.024;6.596;2023-05-10T07:42:21;13.40;88.30
52963;DHT22;38827;53.024;6.596;2023-05-10T07:44:47;13.40;88.30
52963;DHT22;38827;53.024;6.596;2023-05-10T07:47:12;13.40;88.20
52963;DHT22;38827;53.024;6.596;2023-05-10T07:49:38;13.40;88.00
52963;DHT22;38827;53.024;6.596;2023-05-10T07:52:04;13.50;88.10
52963;DHT22;38827;53.024;6.596;2023-05-10T07:54:29;13.50;87.90
52963;DHT22;38827;53.024;6.596;2023-05-10T07:56:55;13.40;87.40
52963;DHT22;38827;53.024;6.596;2023-05-10T07:59:21;13.40;87.30
52963;DHT22;38827;53.024;6.596;2023-05-10T08:01:46;13.30;87.30
52963;DHT22;38827;53.024;6.596;2023-05-10T08:04:12;13.30;87.50
52963;DHT22;38827;53.024;6.596;2023-05-10T08:06:38;13.30;87.60
52963;DHT22;38827;53.024;6.596;2023-05-10T08:09:04;13.40;87.60
52963;DHT22;38827;53.024;6.596;2023-05-10T08:11:30;13.40;87.50
52963;DHT22;38827;53.024;6.596;2023-05-10T08:13:55;13.40;87.50
52963;DHT22;38827;53.024;6.596;2023-05-10T08:16:21;13.50;87.50
52963;DHT22;38827;53.024;6.596;2023-05-10T08:18:47;13.50;87.30
52963;DHT22;38827;53.024;6.596;2023-05-10T08:21:14;13.50;87.00
52963;DHT22;38827;53.024;6.596;2023-05-10T08:23:40;13.60;87.00
52963;DHT22;38827;53.024;6.596;2023-05-10T08:26:06;13.50;86.80
52963;DHT22;38827;53.024;6.596;2023-05-10T08:28:32;13.50;86.90
52963;DHT22;38827;53.024;6.596;2023-05-10T08:30:57;13.50;87.00
52963;DHT22;38827;53.024;6.596;2023-05-10T08:33:23;13.50;87.20
52963;DHT22;38827;53.024;6.596;2023-05-10T08:35:49;13.60;87.10
52963;DHT22;38827;53.024;6.596;2023-05-10T08:38:14;13.70;86.60
52963;DHT22;38827;53.024;6.596;2023-05-10T08:40:44;13.70;86.20
52963;DHT22;38827;53.024;6.596;2023-05-10T08:46:20;13.70;85.80
52963;DHT22;38827;53.024;6.596;2023-05-10T08:51:56;13.70;86.10
52963;DHT22;38827;53.024;6.596;2023-05-10T08:54:23;13.60;85.90
52963;DHT22;38827;53.024;6.596;2023-05-10T08:56:49;13.60;86.20
52963;DHT22;38827;53.024;6.596;2023-05-10T08:59:15;13.60;86.20
52963;DHT22;38827;53.024;6.596;2023-05-10T09:01:42;13.60;86.10
52963;DHT22;38827;53.024;6.596;2023-05-10T09:04:09;13.70;86.20
52963;DHT22;38827;53.024;6.596;2023-05-10T09:06:35;13.70;86.20
52963;DHT22;38827;53.024;6.596;2023-05-10T09:09:01;13.80;86.40
52963;DHT22;38827;53.024;6.596;2023-05-10T09:11:28;13.90;86.00
52963;DHT22;38827;53.024;6.596;2023-05-10T09:13:55;14.00;85.70
52963;DHT22;38827;53.024;6.596;2023-05-10T09:16:22;14.10;85.80
52963;DHT22;38827;53.024;6.596;2023-05-10T09:18:48;14.20;85.70
52963;DHT22;38827;53.024;6.596;2023-05-10T09:21:14;14.20;85.20
52963;DHT22;38827;53.024;6.596;2023-05-10T09:23:44;14.20;85.20
52963;DHT22;38827;53.024;6.596;2023-05-10T09:26:11;14.30;85.00
52963;DHT22;38827;53.024;6.596;2023-05-10T09:31:16;14.30;85.00
52963;DHT22;38827;53.024;6.596;2023-05-10T09:33:46;14.20;85.20
52963;DHT22;38827;53.024;6.596;2023-05-10T09:36:13;14.20;85.20
52963;DHT22;38827;53.024;6.596;2023-05-10T09:38:51;14.20;85.30
52963;DHT22;38827;53.024;6.596;2023-05-10T09:43:43;14.20;85.60
52963;DHT22;38827;53.024;6.596;2023-05-10T09:46:09;14.40;85.80
52963;DHT22;38827;53.024;6.596;2023-05-10T09:48:42;14.70;85.50
52963;DHT22;38827;53.024;6.596;2023-05-10T09:51:08;15.00;84.30
52963;DHT22;38827;53.024;6.596;2023-05-10T09:53:33;15.20;83.20
52963;DHT22;38827;53.024;6.596;2023-05-10T09:55:59;15.20;82.90
52963;DHT22;38827;53.024;6.596;2023-05-10T09:58:25;15.20;82.60
52963;DHT22;38827;53.024;6.596;2023-05-10T10:00:51;15.20;82.50
52963;DHT22;38827;53.024;6.596;2023-05-10T10:03:19;15.00;82.40
52963;DHT22;38827;53.024;6.596;2023-05-10T10:05:47;14.90;82.50
52963;DHT22;38827;53.024;6.596;2023-05-10T10:10:47;14.80;82.80
52963;DHT22;38827;53.024;6.596;2023-05-10T10:13:13;14.70;82.90
52963;DHT22;38827;53.024;6.596;2023-05-10T10:15:39;14.70;82.90
52963;DHT22;38827;53.024;6.596;2023-05-10T10:18:05;14.80;82.80
52963;DHT22;38827;53.024;6.596;2023-05-10T10:20:31;15.00;82.60
52963;DHT22;38827;53.024;6.596;2023-05-10T10:22:57;15.20;82.60
52963;DHT22;38827;53.024;6.596;2023-05-10T10:25:23;15.20;82.20
52963;DHT22;38827;53.024;6.596;2023-05-10T10:35:54;15.40;81.00
52963;DHT22;38827;53.024;6.596;2023-05-10T10:38:21;15.50;81.20
52963;DHT22;38827;53.024;6.596;2023-05-10T10:40:47;15.60;80.60
52963;DHT22;38827;53.024;6.596;2023-05-10T10:43:28;15.60;80.50
52963;DHT22;38827;53.024;6.596;2023-05-10T10:46:15;15.60;80.10
52963;DHT22;38827;53.024;6.596;2023-05-10T10:48:50;15.50;80.00
52963;DHT22;38827;53.024;6.596;2023-05-10T10:51:39;15.50;80.30
52963;DHT22;38827;53.024;6.596;2023-05-10T10:54:10;15.60;80.30
52963;DHT22;38827;53.024;6.596;2023-05-10T10:56:35;15.70;79.90
52963;DHT22;38827;53.024;6.596;2023-05-10T10:59:01;15.80;79.80
52963;DHT22;38827;53.024;6.596;2023-05-10T11:01:33;15.90;79.60
52963;DHT22;38827;53.024;6.596;2023-05-10T11:06:31;16.10;78.20
52963;DHT22;38827;53.024;6.596;2023-05-10T11:08:58;16.00;78.10
52963;DHT22;38827;53.024;6.596;2023-05-10T11:11:23;15.90;78.00
52963;DHT22;38827;53.024;6.596;2023-05-10T11:13:49;15.80;77.90
52963;DHT22;38827;53.024;6.596;2023-05-10T11:16:23;15.80;78.30
52963;DHT22;38827;53.024;6.596;2023-05-10T11:21:23;15.60;78.40
52963;DHT22;38827;53.024;6.596;2023-05-10T11:23:51;15.70;78.60
52963;DHT22;38827;53.024;6.596;2023-05-10T11:26:17;15.70;77.90
52963;DHT22;38827;53.024;6.596;2023-05-10T11:28:47;15.70;77.50
52963;DHT22;38827;53.024;6.596;2023-05-10T11:31:17;15.80;77.40
52963;DHT22;38827;53.024;6.596;2023-05-10T11:36:18;15.90;76.90
52963;DHT22;38827;53.024;6.596;2023-05-10T11:38:45;15.80;76.90
52963;DHT22;38827;53.024;6.596;2023-05-10T11:41:11;15.80;77.10
52963;DHT22;38827;53.024;6.596;2023-05-10T11:43:39;15.80;77.30
52963;DHT22;38827;53.024;6.596;2023-05-10T11:46:10;15.90;77.60
52963;DHT22;38827;53.024;6.596;2023-05-10T11:48:39;15.90;77.60
52963;DHT22;38827;53.024;6.596;2023-05-10T11:51:06;15.90;77.70
52963;DHT22;38827;53.024;6.596;2023-05-10T11:53:33;16.00;77.40
52963;DHT22;38827;53.024;6.596;2023-05-10T11:56:11;15.90;76.80
52963;DHT22;38827;53.024;6.596;2023-05-10T11:58:38;15.90;76.40
52963;DHT22;38827;53.024;6.596;2023-05-10T12:01:05;15.90;76.80
52963;DHT22;38827;53.024;6.596;2023-05-10T12:03:33;15.80;76.70
52963;DHT22;38827;53.024;6.596;2023-05-10T12:09:42;15.70;76.70
52963;DHT22;38827;53.024;6.596;2023-05-10T12:12:54;15.60;76.70
52963;DHT22;38827;53.024;6.596;2023-05-10T12:15:47;15.60;76.80
52963;DHT22;38827;53.024;6.596;2023-05-10T12:18:35;15.60;77.10
52963;DHT22;38827;53.024;6.596;2023-05-10T12:21:22;15.60;77.30
52963;DHT22;38827;53.024;6.596;2023-05-10T12:24:10;15.60;77.00
52963;DHT22;38827;53.024;6.596;2023-05-10T12:26:54;15.70;76.80
52963;DHT22;38827;53.024;6.596;2023-05-10T12:29:35;15.70;77.00
52963;DHT22;38827;53.024;6.596;2023-05-10T12:32:01;15.80;76.50
52963;DHT22;38827;53.024;6.596;2023-05-10T12:34:46;15.80;76.60
52963;DHT22;38827;53.024;6.596;2023-05-10T12:37:15;15.80;76.60
52963;DHT22;38827;53.024;6.596;2023-05-10T12:39:44;15.80;76.60
52963;DHT22;38827;53.024;6.596;2023-05-10T12:42:23;15.90;76.90
52963;DHT22;38827;53.024;6.596;2023-05-10T12:51:11;16.00;76.50
52963;DHT22;38827;53.024;6.596;2023-05-10T12:53:42;16.00;76.70
52963;DHT22;38827;53.024;6.596;2023-05-10T12:56:11;16.00;76.80
52963;DHT22;38827;53.024;6.596;2023-05-10T12:58:36;16.00;76.50
52963;DHT22;38827;53.024;6.596;2023-05-10T13:01:02;16.00;76.20
52963;DHT22;38827;53.024;6.596;2023-05-10T13:03:29;16.10;75.90
52963;DHT22;38827;53.024;6.596;2023-05-10T13:05:59;16.00;75.10
52963;DHT22;38827;53.024;6.596;2023-05-10T13:08:25;16.00;76.00
52963;DHT22;38827;53.024;6.596;2023-05-10T13:11:01;16.00;75.50
52963;DHT22;38827;53.024;6.596;2023-05-10T13:13:39;16.00;75.20
52963;DHT22;38827;53.024;6.596;2023-05-10T13:16:23;16.00;75.40
52963;DHT22;38827;53.024;6.596;2023-05-10T13:19:04;15.90;75.40
52963;DHT22;38827;53.024;6.596;2023-05-10T13:21:30;15.90;75.70
52963;DHT22;38827;53.024;6.596;2023-05-10T13:24:04;15.80;76.00
52963;DHT22;38827;53.024;6.596;2023-05-10T13:26:31;15.90;75.90
52963;DHT22;38827;53.024;6.596;2023-05-10T13:29:06;15.90;76.00
52963;DHT22;38827;53.024;6.596;2023-05-10T13:31:34;15.90;75.80
52963;DHT22;38827;53.024;6.596;2023-05-10T13:34:00;16.00;75.80
52963;DHT22;38827;53.024;6.596;2023-05-10T13:36:26;16.00;75.40
52963;DHT22;38827;53.024;6.596;2023-05-10T13:38:51;16.00;75.30
52963;DHT22;38827;53.024;6.596;2023-05-10T13:41:20;16.00;75.20
52963;DHT22;38827;53.024;6.596;2023-05-10T13:43:46;16.10;75.00
52963;DHT22;38827;53.024;6.596;2023-05-10T13:46:13;16.10;75.00
52963;DHT22;38827;53.024;6.596;2023-05-10T13:48:39;16.20;74.70
52963;DHT22;38827;53.024;6.596;2023-05-10T13:51:08;16.30;74.20
52963;DHT22;38827;53.024;6.596;2023-05-10T13:53:34;16.40;73.90
52963;DHT22;38827;53.024;6.596;2023-05-10T13:55:59;16.60;73.60
52963;DHT22;38827;53.024;6.596;2023-05-10T13:58:25;16.70;72.80
52963;DHT22;38827;53.024;6.596;2023-05-10T14:00:50;16.80;72.60
52963;DHT22;38827;53.024;6.596;2023-05-10T14:03:16;16.90;72.50
52963;DHT22;38827;53.024;6.596;2023-05-10T14:05:42;17.00;72.20
52963;DHT22;38827;53.024;6.596;2023-05-10T14:08:08;16.90;71.60
52963;DHT22;38827;53.024;6.596;2023-05-10T14:10:35;16.90;71.70
52963;DHT22;38827;53.024;6.596;2023-05-10T14:13:01;16.90;71.80
52963;DHT22;38827;53.024;6.596;2023-05-10T14:15:27;16.90;71.90
52963;DHT22;38827;53.024;6.596;2023-05-10T14:17:53;16.80;71.40
52963;DHT22;38827;53.024;6.596;2023-05-10T14:20:38;16.80;71.30
52963;DHT22;38827;53.024;6.596;2023-05-10T14:29:21;16.60;70.50
52963;DHT22;38827;53.024;6.596;2023-05-10T14:31:47;16.60;70.30
52963;DHT22;38827;53.024;6.596;2023-05-10T14:34:13;16.50;70.10
52963;DHT22;38827;53.024;6.596;2023-05-10T14:36:38;16.50;70.10
52963;DHT22;38827;53.024;6.596;2023-05-10T14:39:04;16.50;70.00
52963;DHT22;38827;53.024;6.596;2023-05-10T14:41:31;16.50;70.00
52963;DHT22;38827;53.024;6.596;2023-05-10T14:43:57;16.40;69.60
52963;DHT22;38827;53.024;6.596;2023-05-10T14:46:23;16.40;71.00
52963;DHT22;38827;53.024;6.596;2023-05-10T14:49:45;16.40;70.90
52963;DHT22;38827;53.024;6.596;2023-05-10T14:52:09;16.50;70.20
52963;DHT22;38827;53.024;6.596;2023-05-10T14:54:37;16.40;70.90
52963;DHT22;38827;53.024;6.596;2023-05-10T14:57:03;16.50;70.80
52963;DHT22;38827;53.024;6.596;2023-05-10T14:59:29;16.50;70.80
52963;DHT22;38827;53.024;6.596;2023-05-10T15:01:55;16.50;70.60
52963;DHT22;38827;53.024;6.596;2023-05-10T15:04:20;16.50;70.70
52963;DHT22;38827;53.024;6.596;2023-05-10T15:06:46;16.60;70.80
52963;DHT22;38827;53.024;6.596;2023-05-10T15:09:12;16.70;70.40
52963;DHT22;38827;53.024;6.596;2023-05-10T15:11:38;16.70;70.60
52963;DHT22;38827;53.024;6.596;2023-05-10T15:14:03;16.80;70.30
52963;DHT22;38827;53.024;6.596;2023-05-10T15:16:29;16.80;70.20
52963;DHT22;38827;53.024;6.596;2023-05-10T15:18:55;16.90;69.90
52963;DHT22;38827;53.024;6.596;2023-05-10T15:21:20;16.90;69.60
52963;DHT22;38827;53.024;6.596;2023-05-10T15:23:46;17.00;69.60
52963;DHT22;38827;53.024;6.596;2023-05-10T15:26:12;17.00;68.70
52963;DHT22;38827;53.024;6.596;2023-05-10T15:28:38;16.90;68.50
52963;DHT22;38827;53.024;6.596;2023-05-10T15:31:04;16.80;68.00
52963;DHT22;38827;53.024;6.596;2023-05-10T15:33:37;16.80;68.00
52963;DHT22;38827;53.024;6.596;2023-05-10T15:36:11;16.80;68.10
52963;DHT22;38827;53.024;6.596;2023-05-10T15:38:59;16.80;68.10
52963;DHT22;38827;53.024;6.596;2023-05-10T15:41:32;16.80;68.20
52963;DHT22;38827;53.024;6.596;2023-05-10T15:43:58;16.80;68.50
52963;DHT22;38827;53.024;6.596;2023-05-10T15:46:25;16.80;68.50
52963;DHT22;38827;53.024;6.596;2023-05-10T15:49:21;16.70;68.20
52963;DHT22;38827;53.024;6.596;2023-05-10T15:51:47;16.70;68.90
52963;DHT22;38827;53.024;6.596;2023-05-10T15:54:12;16.70;69.40
52963;DHT22;38827;53.024;6.596;2023-05-10T15:56:38;16.70;69.10
52963;DHT22;38827;53.024;6.596;2023-05-10T15:59:04;16.70;69.10
52963;DHT22;38827;53.024;6.596;2023-05-10T16:01:35;16.70;69.20
52963;DHT22;38827;53.024;6.596;2023-05-10T16:04:00;16.70;69.50
52963;DHT22;38827;53.024;6.596;2023-05-10T16:06:26;16.80;69.80
52963;DHT22;38827;53.024;6.596;2023-05-10T16:08:52;16.80;69.80
52963;DHT22;38827;53.024;6.596;2023-05-10T16:11:17;16.80;69.80
52963;DHT22;38827;53.024;6.596;2023-05-10T16:13:43;16.80;69.90
52963;DHT22;38827;53.024;6.596;2023-05-10T16:16:08;16.80;70.00
52963;DHT22;38827;53.024;6.596;2023-05-10T16:18:34;16.90;69.90
52963;DHT22;38827;53.024;6.596;2023-05-10T16:21:00;16.90;69.90
52963;DHT22;38827;53.024;6.596;2023-05-10T16:23:26;16.90;70.00
52963;DHT22;38827;53.024;6.596;2023-05-10T16:25:53;16.90;70.00
52963;DHT22;38827;53.024;6.596;2023-05-10T16:28:18;16.90;69.90
52963;DHT22;38827;53.024;6.596;2023-05-10T16:30:47;16.80;69.80
52963;DHT22;38827;53.024;6.596;2023-05-10T16:33:13;16.80;69.90
52963;DHT22;38827;53.024;6.596;2023-05-10T16:35:40;16.70;70.00